Time;durP1;ratioP1;P1;durP2;ratioP2;P2;SDS_P1;SDS_P2;PMS_P1;PMS_P2;Temp;Humidity;BMP_temperature;BMP_pressure;BME280_temperature;BME280_humidity;BME280_pressure;Samples;Min_cycle;Max_cycle;Signal;HPM_P1;HPM_P2
2023/01/19 00:02:21;;;;;;;15.00;10.70;;;2.70;98.50;;;;;;4812766;29;20072;-80
2023/01/19 00:04:46;;;;;;;31.17;11.50;;;2.70;98.50;;;;;;4828522;29;20046;-81
2023/01/19 00:07:12;;;;;;;23.17;11.33;;;2.70;98.40;;;;;;4830199;29;20609;-79
2023/01/19 00:09:45;;;;;;;14.17;10.23;;;2.70;98.50;;;;;;4828492;29;20077;-78
2023/01/19 00:12:10;;;;;;;17.23;11.33;;;2.70;98.50;;;;;;4824192;29;20058;-79
2023/01/19 00:14:36;;;;;;;15.40;10.30;;;2.70;98.50;;;;;;4830881;29;20055;-81
2023/01/19 00:17:02;;;;;;;18.13;11.43;;;2.80;98.60;;;;;;4832041;29;20074;-78
2023/01/19 00:19:28;;;;;;;13.87;10.20;;;2.80;98.60;;;;;;4809665;29;20503;-78
2023/01/19 00:21:54;;;;;;;24.93;10.77;;;2.80;98.60;;;;;;4832109;29;20121;-79
2023/01/19 00:24:20;;;;;;;19.07;10.30;;;2.80;98.60;;;;;;4821565;29;20050;-78
2023/01/19 00:26:45;;;;;;;14.47;9.63;;;2.80;98.60;;;;;;4820730;29;20045;-78
2023/01/19 00:29:12;;;;;;;12.53;8.23;;;2.80;98.70;;;;;;4829935;29;20042;-78
2023/01/19 00:31:38;;;;;;;13.93;8.10;;;2.80;98.70;;;;;;4814394;29;20044;-79
2023/01/19 00:34:05;;;;;;;12.00;7.20;;;2.80;98.70;;;;;;4824286;29;20417;-80
2023/01/19 00:36:31;;;;;;;14.70;8.10;;;2.80;98.70;;;;;;4824937;29;20059;-80
2023/01/19 00:38:56;;;;;;;45.00;7.53;;;2.90;98.80;;;;;;4826577;29;20052;-81
2023/01/19 00:42:38;;;;;;;13.10;6.57;;;2.90;98.70;;;;;;4826411;29;20069;-79
2023/01/19 00:44:09;;;;;;;12.20;6.33;;;2.90;98.70;;;;;;4830433;29;20077;-81
2023/01/19 00:46:35;;;;;;;10.33;5.60;;;2.90;98.70;;;;;;4826504;29;20706;-80
2023/01/19 00:49:00;;;;;;;50.27;7.37;;;2.90;98.70;;;;;;4831595;29;20066;-81
2023/01/19 00:51:26;;;;;;;12.80;5.90;;;2.90;98.70;;;;;;4822800;29;20046;-79
2023/01/19 00:53:51;;;;;;;10.07;4.07;;;2.90;98.70;;;;;;4827572;29;20053;-81
2023/01/19 00:56:17;;;;;;;6.20;3.83;;;2.90;98.70;;;;;;4830422;29;20068;-80
2023/01/19 00:58:44;;;;;;;7.27;3.57;;;3.00;98.70;;;;;;4825052;29;20061;-80
2023/01/19 01:01:10;;;;;;;6.50;4.00;;;2.90;98.70;;;;;;4814969;29;20052;-81
2023/01/19 01:03:36;;;;;;;8.73;3.47;;;2.90;98.70;;;;;;4827361;29;20490;-81
2023/01/19 01:06:02;;;;;;;7.10;3.90;;;2.90;98.70;;;;;;4828949;29;20109;-78
2023/01/19 01:08:28;;;;;;;4.53;3.43;;;2.90;98.70;;;;;;4829000;29;20061;-79
2023/01/19 01:10:55;;;;;;;4.17;3.03;;;2.90;98.60;;;;;;4826720;29;20049;-79
2023/01/19 01:13:21;;;;;;;39.83;4.13;;;2.80;98.50;;;;;;4831101;29;20049;-80
2023/01/19 01:15:51;;;;;;;4.77;3.20;;;2.80;98.40;;;;;;4825682;29;20034;-80
2023/01/19 01:18:16;;;;;;;5.20;3.87;;;2.70;98.30;;;;;;4831546;29;20483;-80
2023/01/19 01:20:42;;;;;;;4.97;4.00;;;2.70;98.20;;;;;;4829737;29;20069;-80
2023/01/19 01:23:07;;;;;;;5.47;4.10;;;2.60;98.20;;;;;;4826210;29;20042;-81
2023/01/19 01:25:36;;;;;;;8.10;4.57;;;2.50;98.30;;;;;;4830325;29;20078;-81
2023/01/19 01:28:04;;;;;;;7.00;5.00;;;2.50;98.30;;;;;;4824605;29;20077;-81
2023/01/19 01:30:29;;;;;;;5.43;4.30;;;2.40;98.30;;;;;;4821375;29;20506;-79
2023/01/19 01:32:55;;;;;;;5.83;4.40;;;2.40;98.40;;;;;;4828782;29;20064;-79
2023/01/19 01:35:20;;;;;;;5.13;4.40;;;2.30;98.30;;;;;;4835635;29;20156;-79
2023/01/19 01:37:46;;;;;;;5.80;4.40;;;2.30;98.40;;;;;;4829914;29;20444;-80
2023/01/19 01:40:14;;;;;;;5.93;4.53;;;2.30;98.40;;;;;;4822763;29;20036;-79
2023/01/19 01:42:41;;;;;;;4.20;3.80;;;2.30;98.40;;;;;;4828269;29;20102;-78
2023/01/19 01:45:27;;;;;;;19.73;5.13;;;2.30;98.50;;;;;;4825691;29;20064;-79
2023/01/19 01:47:56;;;;;;;9.40;4.53;;;2.30;98.50;;;;;;4826260;29;20507;-80
2023/01/19 01:50:25;;;;;;;36.57;5.93;;;2.30;98.60;;;;;;4827390;29;20046;-80
2023/01/19 01:52:52;;;;;;;;;;;2.30;98.50;;;;;;4826626;29;20145;-80
2023/01/19 01:55:20;;;;;;;5.33;4.73;;;2.30;98.60;;;;;;4827296;29;20010;-80
2023/01/19 01:57:49;;;;;;;;;;;2.30;98.60;;;;;;4827541;29;20054;-80
2023/01/19 02:00:15;;;;;;;7.28;5.65;;;2.30;98.70;;;;;;4830039;29;19932;-80
2023/01/19 02:02:50;;;;;;;8.57;6.10;;;2.20;98.60;;;;;;4825377;29;20041;-81
2023/01/19 02:05:25;;;;;;;11.27;6.10;;;2.30;98.60;;;;;;4830219;29;20495;-81
2023/01/19 02:13:25;;;;;;;9.37;6.77;;;2.30;98.60;;;;;;4823907;29;20062;-79
2023/01/19 02:15:53;;;;;;;15.27;6.57;;;2.30;98.60;;;;;;4825692;29;20065;-78
2023/01/19 02:18:25;;;;;;;40.63;7.95;;;2.30;98.70;;;;;;4840186;29;20049;-78
2023/01/19 02:20:56;;;;;;;13.33;8.27;;;2.30;98.70;;;;;;4827608;29;20084;-80
2023/01/19 02:23:37;;;;;;;36.27;8.10;;;2.40;98.70;;;;;;4825639;29;20042;-78
2023/01/19 02:26:03;;;;;;;12.17;7.57;;;2.40;98.70;;;;;;4827664;29;20312;-80
2023/01/19 02:28:30;;;;;;;13.57;7.70;;;2.40;99.10;;;;;;4829467;29;20138;-80
2023/01/19 02:30:56;;;;;;;9.27;7.27;;;2.40;98.80;;;;;;4825444;29;20058;-81
2023/01/19 02:33:22;;;;;;;16.77;8.57;;;2.40;98.70;;;;;;4825978;29;20046;-81
2023/01/19 02:35:50;;;;;;;12.93;8.33;;;2.40;98.70;;;;;;4822945;29;20058;-82
2023/01/19 02:38:19;;;;;;;14.20;9.02;;;2.40;98.70;;;;;;4828601;29;20068;-79
2023/01/19 02:40:46;;;;;;;14.73;8.80;;;2.40;98.70;;;;;;4823103;29;20046;-81
2023/01/19 02:43:13;;;;;;;12.27;8.80;;;2.40;98.80;;;;;;4825846;29;20046;-81
2023/01/19 02:45:39;;;;;;;19.70;9.17;;;2.50;98.80;;;;;;4827082;29;20830;-81
2023/01/19 02:48:05;;;;;;;12.73;8.70;;;2.40;98.80;;;;;;4825162;29;20102;-78
2023/01/19 02:50:44;;;;;;;13.87;8.70;;;2.50;98.80;;;;;;4828479;29;20078;-78
2023/01/19 02:53:13;;;;;;;16.73;9.47;;;2.50;98.80;;;;;;4823844;29;20058;-78
2023/01/19 02:55:41;;;;;;;14.82;9.55;;;2.50;98.80;;;;;;4827590;29;20061;-77
2023/01/19 02:58:21;;;;;;;17.27;10.57;;;2.50;98.80;;;;;;4825796;29;20041;-77
2023/01/19 03:00:53;;;;;;;15.30;10.27;;;2.50;98.90;;;;;;4825430;29;20070;-78
2023/01/19 03:03:29;;;;;;;15.13;10.30;;;2.50;98.90;;;;;;4826670;29;20057;-79
2023/01/19 03:06:30;;;;;;;15.17;11.00;;;2.50;98.90;;;;;;4827792;29;20147;-79
2023/01/19 03:09:18;;;;;;;20.27;10.97;;;2.50;98.90;;;;;;4828720;29;20065;-79
2023/01/19 03:11:52;;;;;;;19.07;12.17;;;2.50;98.90;;;;;;4821446;29;20052;-79
2023/01/19 03:14:23;;;;;;;21.00;11.90;;;2.50;98.90;;;;;;4818203;29;20613;-79
2023/01/19 03:16:58;;;;;;;19.47;12.00;;;2.60;98.90;;;;;;4820921;29;20042;-79
2023/01/19 03:19:36;;;;;;;21.30;12.60;;;2.60;98.90;;;;;;4826986;29;20073;-79
2023/01/19 03:22:12;;;;;;;16.00;11.50;;;2.60;99.00;;;;;;4826599;29;20030;-79
2023/01/19 03:24:42;;;;;;;16.30;11.67;;;2.60;99.00;;;;;;4825706;29;20100;-78
2023/01/19 03:27:28;;;;;;;18.47;11.80;;;2.60;98.90;;;;;;4825517;29;20081;-78
2023/01/19 03:30:01;;;;;;;19.53;12.23;;;2.60;99.00;;;;;;4823160;29;20058;-79
2023/01/19 03:32:34;;;;;;;19.57;12.67;;;2.60;99.00;;;;;;4825688;29;20054;-80
2023/01/19 03:35:04;;;;;;;17.00;11.50;;;2.60;99.00;;;;;;4826998;29;20062;-78
2023/01/19 03:37:32;;;;;;;19.00;11.53;;;2.60;99.00;;;;;;4824915;29;20191;-79
2023/01/19 03:39:58;;;;;;;20.48;11.73;;;2.60;99.00;;;;;;4824252;29;20042;-79
2023/01/19 03:42:25;;;;;;;57.53;12.77;;;2.60;99.00;;;;;;4825287;29;20056;-80
2023/01/19 03:44:55;;;;;;;17.83;11.37;;;2.60;99.00;;;;;;4821971;29;20057;-78
2023/01/19 03:47:22;;;;;;;29.33;11.63;;;2.50;99.00;;;;;;4826626;29;20057;-81
2023/01/19 03:49:49;;;;;;;15.40;10.93;;;2.50;99.00;;;;;;4826323;29;20057;-80
2023/01/19 03:52:15;;;;;;;18.10;10.40;;;2.50;99.00;;;;;;4827552;29;20046;-79
2023/01/19 03:54:41;;;;;;;47.57;11.27;;;2.50;99.00;;;;;;4825070;29;20356;-79
2023/01/19 03:57:06;;;;;;;11.60;9.10;;;2.50;99.00;;;;;;4827798;29;20109;-79
2023/01/19 03:59:33;;;;;;;14.50;10.23;;;2.50;98.90;;;;;;4828041;29;20099;-81
2023/01/19 04:01:59;;;;;;;13.50;9.47;;;2.50;99.00;;;;;;4809269;29;20089;-79
2023/01/19 04:04:24;;;;;;;68.77;12.03;;;2.50;98.90;;;;;;4827513;29;20408;-79
2023/01/19 04:06:50;;;;;;;30.20;10.03;;;2.50;98.90;;;;;;4824828;29;20056;-80
2023/01/19 04:09:15;;;;;;;11.97;8.37;;;2.40;98.90;;;;;;4825948;29;20082;-79
2023/01/19 04:11:41;;;;;;;10.47;8.30;;;2.40;98.90;;;;;;4824446;29;20034;-80
2023/01/19 04:14:06;;;;;;;13.60;8.37;;;2.40;98.90;;;;;;4823904;29;20034;-80
2023/01/19 04:16:32;;;;;;;12.13;7.80;;;2.40;99.00;;;;;;4825560;29;20074;-80
2023/01/19 04:18:58;;;;;;;14.47;7.97;;;2.40;99.00;;;;;;4826147;29;20074;-81
2023/01/19 04:21:23;;;;;;;10.50;7.50;;;2.40;99.00;;;;;;4824990;29;20050;-81
2023/01/19 04:23:49;;;;;;;11.73;7.23;;;2.40;99.00;;;;;;4823164;29;20101;-81
2023/01/19 04:26:15;;;;;;;9.87;7.07;;;2.40;99.00;;;;;;4826461;29;20050;-80
2023/01/19 04:28:40;;;;;;;9.43;6.97;;;2.40;99.00;;;;;;4827230;29;20054;-78
2023/01/19 04:31:06;;;;;;;11.57;7.40;;;2.40;99.00;;;;;;4825301;29;20050;-80
2023/01/19 04:33:32;;;;;;;12.50;7.37;;;2.40;99.00;;;;;;4826299;29;20110;-80
2023/01/19 04:35:58;;;;;;;9.63;7.43;;;2.40;99.00;;;;;;4827630;29;20042;-80
2023/01/19 04:38:25;;;;;;;11.30;7.33;;;2.40;99.00;;;;;;4825672;29;20053;-79
2023/01/19 04:40:51;;;;;;;10.23;7.00;;;2.30;99.00;;;;;;4829479;29;20173;-80
2023/01/19 04:43:18;;;;;;;11.03;7.23;;;2.30;99.00;;;;;;4827966;29;20045;-80
2023/01/19 04:45:45;;;;;;;13.17;7.57;;;2.30;99.00;;;;;;4812148;29;20507;-81
2023/01/19 04:48:12;;;;;;;12.10;7.20;;;2.30;99.10;;;;;;4827131;29;20149;-80
2023/01/19 04:50:38;;;;;;;10.87;7.03;;;2.20;99.00;;;;;;4806285;29;20041;-81
2023/01/19 04:53:03;;;;;;;45.23;7.83;;;2.20;99.10;;;;;;4827639;29;20077;-80
2023/01/19 04:55:29;;;;;;;27.83;7.97;;;2.20;99.10;;;;;;4813046;29;20054;-80
2023/01/19 04:57:54;;;;;;;12.43;7.50;;;2.20;99.20;;;;;;4830720;29;20050;-80
2023/01/19 05:00:22;;;;;;;12.60;7.03;;;2.20;99.20;;;;;;4828891;29;20076;-80
2023/01/19 05:02:48;;;;;;;12.37;7.20;;;2.20;99.20;;;;;;4830511;29;20065;-80
2023/01/19 05:05:13;;;;;;;64.63;10.27;;;2.20;99.30;;;;;;4829927;29;20050;-82
2023/01/19 05:07:39;;;;;;;17.80;7.97;;;2.20;99.30;;;;;;4832876;29;20626;-81
2023/01/19 05:10:05;;;;;;;10.50;6.90;;;2.20;99.30;;;;;;4827661;29;20038;-79
2023/01/19 05:12:32;;;;;;;12.87;7.63;;;2.20;99.30;;;;;;4826083;29;20106;-81
2023/01/19 05:14:58;;;;;;;22.50;7.77;;;2.20;99.40;;;;;;4829533;29;20076;-81
2023/01/19 05:17:23;;;;;;;15.20;8.70;;;2.20;99.30;;;;;;4831820;29;20090;-81
2023/01/19 05:19:49;;;;;;;16.93;8.10;;;2.20;99.30;;;;;;4832122;29;20165;-81
2023/01/19 05:22:15;;;;;;;12.00;7.10;;;2.20;99.30;;;;;;4832802;29;20045;-81
2023/01/19 05:24:40;;;;;;;14.53;7.47;;;2.20;99.40;;;;;;4834641;29;20048;-81
2023/01/19 05:27:06;;;;;;;14.50;7.37;;;2.20;99.40;;;;;;4836267;29;20057;-82
2023/01/19 05:29:33;;;;;;;16.70;7.67;;;2.20;99.50;;;;;;4832928;29;20070;-81
2023/01/19 05:31:59;;;;;;;18.87;8.30;;;2.30;99.50;;;;;;4833953;29;20136;-80
2023/01/19 05:34:24;;;;;;;12.93;7.27;;;2.30;99.50;;;;;;4831533;29;20100;-79
2023/01/19 05:36:50;;;;;;;16.40;7.57;;;2.20;99.50;;;;;;4834757;29;20491;-82
2023/01/19 05:39:16;;;;;;;14.47;7.37;;;2.30;99.50;;;;;;4839520;29;20054;-81
2023/01/19 05:41:43;;;;;;;16.13;7.13;;;2.20;99.50;;;;;;4832395;29;20407;-79
2023/01/19 05:44:09;;;;;;;18.67;6.80;;;2.20;99.50;;;;;;4833631;29;21208;-81
2023/01/19 05:46:34;;;;;;;15.23;6.90;;;2.20;99.60;;;;;;4831840;29;20045;-79
2023/01/19 05:49:03;;;;;;;15.67;6.50;;;2.20;99.50;;;;;;4833301;29;20571;-80
2023/01/19 05:51:33;;;;;;;17.02;6.50;;;2.20;99.50;;;;;;4832649;29;20073;-79
2023/01/19 05:54:06;;;;;;;17.10;6.90;;;2.20;99.60;;;;;;4834070;29;20057;-79
2023/01/19 05:56:32;;;;;;;14.63;5.90;;;2.20;99.60;;;;;;4833848;29;20076;-78
2023/01/19 05:58:59;;;;;;;13.73;6.03;;;2.20;99.60;;;;;;4833841;29;20629;-79
2023/01/19 06:01:24;;;;;;;17.17;5.97;;;2.20;99.70;;;;;;4836336;29;20494;-80
2023/01/19 06:03:50;;;;;;;18.27;5.63;;;2.30;99.70;;;;;;4842296;29;20045;-80
2023/01/19 06:06:16;;;;;;;18.87;6.20;;;2.30;99.70;;;;;;4832916;29;20129;-79
2023/01/19 06:08:41;;;;;;;13.77;5.27;;;2.30;99.70;;;;;;4833690;29;20061;-79
2023/01/19 06:11:07;;;;;;;12.97;5.57;;;2.30;99.70;;;;;;4817382;29;20077;-78
2023/01/19 06:13:33;;;;;;;16.37;4.87;;;2.30;99.70;;;;;;4832174;29;20095;-78
2023/01/19 06:16:00;;;;;;;17.30;4.67;;;2.30;99.70;;;;;;4817741;29;20057;-79
2023/01/19 06:18:26;;;;;;;12.83;3.60;;;2.30;99.70;;;;;;4832113;29;20058;-79
2023/01/19 06:20:57;;;;;;;13.07;3.17;;;2.30;99.70;;;;;;4834920;29;20042;-79
2023/01/19 06:23:24;;;;;;;11.40;2.10;;;2.40;99.80;;;;;;4832792;29;20064;-79
2023/01/19 06:25:50;;;;;;;9.07;2.17;;;2.40;99.80;;;;;;4830681;29;20747;-80
2023/01/19 06:28:16;;;;;;;7.03;1.80;;;2.50;99.90;;;;;;4834441;29;20042;-79
2023/01/19 06:30:41;;;;;;;9.03;2.00;;;2.50;99.80;;;;;;4831901;29;20475;-79
2023/01/19 06:33:07;;;;;;;7.57;1.80;;;2.60;99.70;;;;;;4832742;29;20041;-78
2023/01/19 06:35:34;;;;;;;4.73;1.80;;;2.60;99.60;;;;;;4830106;29;20368;-79
2023/01/19 06:38:00;;;;;;;4.10;1.33;;;2.60;99.90;;;;;;4832349;29;20054;-79
2023/01/19 06:40:25;;;;;;;10.98;2.92;;;2.60;99.80;;;;;;4833091;29;20049;-80
2023/01/19 06:42:51;;;;;;;10.67;2.47;;;2.60;99.40;;;;;;4831440;29;20057;-81
2023/01/19 06:45:17;;;;;;;10.00;3.20;;;2.60;99.30;;;;;;4832055;29;20415;-81
2023/01/19 06:47:45;;;;;;;10.27;2.30;;;2.60;99.30;;;;;;4833269;29;20056;-80
2023/01/19 06:50:11;;;;;;;8.07;1.60;;;2.60;99.40;;;;;;4831951;29;20496;-80
2023/01/19 06:52:41;;;;;;;7.67;2.00;;;2.70;99.40;;;;;;4830512;29;20144;-78
2023/01/19 06:55:10;;;;;;;5.73;1.30;;;2.70;99.40;;;;;;4832291;29;20106;-79
2023/01/19 06:57:39;;;;;;;5.13;1.40;;;2.70;99.20;;;;;;4833867;29;20049;-80
2023/01/19 07:00:08;;;;;;;5.63;1.35;;;2.80;99.00;;;;;;4830639;29;20665;-78
2023/01/19 07:02:35;;;;;;;9.00;1.67;;;2.80;98.80;;;;;;4831818;29;20558;-79
2023/01/19 07:05:00;;;;;;;9.90;1.90;;;2.80;98.70;;;;;;4832415;29;20054;-79
2023/01/19 07:07:26;;;;;;;9.77;1.97;;;2.70;98.60;;;;;;4834881;29;20052;-78
2023/01/19 07:09:52;;;;;;;11.67;4.67;;;2.70;98.60;;;;;;4831974;29;20511;-79
2023/01/19 07:12:17;;;;;;;15.53;4.03;;;2.70;98.60;;;;;;4828197;29;20054;-79
2023/01/19 07:14:43;;;;;;;17.30;4.83;;;2.60;98.60;;;;;;4826488;29;20049;-79
2023/01/19 07:17:09;;;;;;;18.37;9.87;;;2.50;98.60;;;;;;4834310;29;20054;-78
2023/01/19 07:19:35;;;;;;;18.33;10.33;;;2.50;98.70;;;;;;4831575;29;20145;-80
2023/01/19 07:22:01;;;;;;;25.30;13.20;;;2.50;98.80;;;;;;4843826;29;20129;-79
2023/01/19 07:24:29;;;;;;;18.53;11.80;;;2.40;98.90;;;;;;4832563;29;20066;-81
2023/01/19 07:26:55;;;;;;;17.80;7.23;;;2.40;98.90;;;;;;4829537;29;20046;-81
2023/01/19 07:29:20;;;;;;;21.40;4.30;;;2.40;99.00;;;;;;4830829;29;20474;-80
2023/01/19 07:31:47;;;;;;;12.63;4.87;;;2.40;99.10;;;;;;4830362;29;20497;-82
2023/01/19 07:34:14;;;;;;;20.77;5.77;;;2.50;99.20;;;;;;4831452;29;20065;-81
2023/01/19 07:36:40;;;;;;;12.70;2.00;;;2.60;99.30;;;;;;4812041;29;20038;-83
2023/01/19 07:39:05;;;;;;;15.90;2.20;;;2.70;99.30;;;;;;4831414;29;20097;-80
2023/01/19 07:41:31;;;;;;;18.33;3.27;;;2.70;99.20;;;;;;4829067;29;20486;-80
2023/01/19 07:43:56;;;;;;;32.03;14.37;;;2.80;99.20;;;;;;4825626;29;20129;-80
2023/01/19 07:46:22;;;;;;;22.73;7.37;;;2.80;99.40;;;;;;4828288;29;20198;-81
2023/01/19 07:48:48;;;;;;;13.20;3.23;;;2.80;99.00;;;;;;4827597;29;20050;-80
2023/01/19 07:51:17;;;;;;;12.67;2.60;;;2.90;99.00;;;;;;4829423;29;20050;-79
2023/01/19 07:53:48;;;;;;;10.27;2.10;;;2.80;98.90;;;;;;4827682;29;20065;-80
2023/01/19 07:56:14;;;;;;;20.73;2.87;;;2.80;98.90;;;;;;4825139;29;20050;-81
2023/01/19 07:58:39;;;;;;;20.27;2.70;;;2.80;98.90;;;;;;4828313;29;20680;-79
2023/01/19 08:01:10;;;;;;;18.93;2.17;;;2.90;98.90;;;;;;4826060;29;20042;-80
2023/01/19 08:03:36;;;;;;;18.80;2.80;;;2.90;99.00;;;;;;4828313;29;20042;-81
2023/01/19 08:06:03;;;;;;;22.17;3.40;;;2.90;98.90;;;;;;4830115;29;20095;-81
2023/01/19 08:08:33;;;;;;;19.30;2.63;;;3.00;98.90;;;;;;4829848;29;20058;-80
2023/01/19 08:10:59;;;;;;;19.10;3.10;;;3.00;98.90;;;;;;4831949;29;20082;-80
2023/01/19 08:13:25;;;;;;;17.67;2.50;;;3.10;98.90;;;;;;4832583;29;20053;-81
2023/01/19 08:15:52;;;;;;;17.67;2.67;;;3.10;98.80;;;;;;4832159;29;20058;-82
2023/01/19 08:18:19;;;;;;;21.67;2.77;;;3.20;98.70;;;;;;4828438;29;20030;-81
2023/01/19 08:20:45;;;;;;;17.13;2.43;;;3.20;98.50;;;;;;4834259;29;20058;-83
2023/01/19 08:23:11;;;;;;;21.10;2.87;;;3.30;98.30;;;;;;4831119;29;20052;-81
2023/01/19 08:25:44;;;;;;;15.37;2.10;;;3.40;98.10;;;;;;4829008;29;20046;-83
2023/01/19 08:28:10;;;;;;;19.40;2.70;;;3.40;97.80;;;;;;4831129;29;20053;-83
2023/01/19 08:30:37;;;;;;;15.13;3.33;;;3.40;97.70;;;;;;4819270;29;20054;-84
2023/01/19 08:33:03;;;;;;;17.53;2.20;;;3.40;97.50;;;;;;4831532;29;20498;-79
2023/01/19 08:35:34;;;;;;;12.67;2.00;;;3.40;97.30;;;;;;4835228;29;20050;-82
2023/01/19 08:38:00;;;;;;;16.37;2.60;;;3.50;97.00;;;;;;4832271;29;20190;-82
2023/01/19 08:40:34;;;;;;;10.57;2.10;;;3.50;96.90;;;;;;4831171;29;20042;-80
2023/01/19 08:43:06;;;;;;;20.03;2.27;;;3.50;96.90;;;;;;4830299;29;20110;-82
2023/01/19 08:45:36;;;;;;;13.80;2.50;;;3.50;96.90;;;;;;4827785;29;20563;-81
2023/01/19 08:48:03;;;;;;;16.07;3.07;;;3.40;97.00;;;;;;4827140;29;20134;-84
2023/01/19 08:50:30;;;;;;;18.70;3.17;;;3.50;97.20;;;;;;4831618;29;20102;-83
2023/01/19 08:52:58;;;;;;;24.35;3.45;;;3.50;97.40;;;;;;4828687;29;20042;-85
2023/01/19 08:55:24;;;;;;;13.73;3.60;;;3.50;97.50;;;;;;4831035;29;20048;-84
2023/01/19 08:57:55;;;;;;;18.30;2.90;;;3.50;97.60;;;;;;4829923;29;20044;-85
2023/01/19 09:00:21;;;;;;;17.27;3.87;;;3.60;97.60;;;;;;4831115;29;20133;-85
2023/01/19 09:02:47;;;;;;;22.63;3.30;;;3.60;97.70;;;;;;4828728;29;20588;-83
2023/01/19 09:05:13;;;;;;;20.52;5.60;;;3.60;97.70;;;;;;4831135;29;20045;-84
2023/01/19 09:07:38;;;;;;;18.53;3.13;;;3.50;97.70;;;;;;4832662;29;20073;-81
2023/01/19 09:10:05;;;;;;;25.57;5.90;;;3.50;97.70;;;;;;4829016;29;20058;-85
2023/01/19 09:12:31;;;;;;;23.20;6.10;;;3.60;97.90;;;;;;4829684;29;20137;-84
2023/01/19 09:14:57;;;;;;;24.03;3.97;;;3.60;97.80;;;;;;4827983;29;20212;-82
2023/01/19 09:17:23;;;;;;;22.80;5.67;;;3.60;97.80;;;;;;4830736;29;20809;-83
2023/01/19 09:19:48;;;;;;;33.37;8.40;;;3.60;97.90;;;;;;4829046;29;20746;-82
2023/01/19 09:22:14;;;;;;;26.97;3.90;;;3.60;97.80;;;;;;4830189;29;20045;-81
2023/01/19 09:24:39;;;;;;;22.37;3.67;;;3.50;97.80;;;;;;4830907;29;20069;-83
2023/01/19 09:27:05;;;;;;;24.77;3.77;;;3.50;97.80;;;;;;4831232;29;20118;-81
2023/01/19 09:29:31;;;;;;;16.93;4.70;;;3.50;97.80;;;;;;4830719;29;20058;-82
2023/01/19 09:31:57;;;;;;;27.90;4.57;;;3.60;97.80;;;;;;4829268;29;20045;-80
2023/01/19 09:34:24;;;;;;;20.10;3.40;;;3.50;97.70;;;;;;4830738;29;20579;-81
2023/01/19 09:36:50;;;;;;;22.40;4.37;;;3.50;97.60;;;;;;4814856;29;20064;-80
2023/01/19 09:39:16;;;;;;;14.17;4.27;;;3.50;97.60;;;;;;4832559;29;20037;-81
2023/01/19 09:41:50;;;;;;;30.63;4.63;;;3.50;97.50;;;;;;4831032;29;20049;-79
2023/01/19 09:44:27;;;;;;;29.60;4.20;;;3.40;97.50;;;;;;4835988;29;20054;-79
2023/01/19 09:46:52;;;;;;;26.20;6.73;;;3.40;97.40;;;;;;4833006;29;20056;-78
2023/01/19 09:49:35;;;;;;;35.40;9.13;;;3.40;97.40;;;;;;4831982;29;20042;-78
2023/01/19 09:52:02;;;;;;;31.10;7.33;;;3.40;97.40;;;;;;4839039;29;20053;-79
2023/01/19 09:54:39;;;;;;;33.23;10.57;;;3.30;97.60;;;;;;4835743;29;20117;-79
2023/01/19 09:57:10;;;;;;;43.37;11.50;;;3.30;97.30;;;;;;4834421;29;20065;-78
2023/01/19 09:59:37;;;;;;;39.93;12.20;;;3.30;97.40;;;;;;4838297;29;20647;-80
2023/01/19 10:02:13;;;;;;;47.77;15.80;;;3.20;97.40;;;;;;4833006;29;20409;-78
2023/01/19 10:04:52;;;;;;;35.67;7.87;;;3.30;97.80;;;;;;4833468;29;20061;-79
2023/01/19 10:07:36;;;;;;;50.40;12.97;;;3.30;97.60;;;;;;4832189;29;20783;-78
2023/01/19 10:10:20;;;;;;;39.07;9.87;;;3.40;97.60;;;;;;4813841;29;20058;-78
2023/01/19 10:13:13;;;;;;;55.97;16.77;;;3.50;97.60;;;;;;4830561;29;20118;-79
2023/01/19 10:15:51;;;;;;;41.13;9.97;;;3.60;97.50;;;;;;4829822;29;20053;-79
2023/01/19 10:18:20;;;;;;;34.70;9.20;;;3.70;97.30;;;;;;4829158;29;20132;-79
2023/01/19 10:20:53;;;;;;;32.30;7.25;;;3.80;97.20;;;;;;4830633;29;20077;-80
2023/01/19 10:23:24;;;;;;;28.30;5.30;;;3.90;97.10;;;;;;4828351;29;20053;-80
2023/01/19 10:25:50;;;;;;;25.73;4.77;;;4.00;96.90;;;;;;4828546;29;20495;-80
2023/01/19 10:28:22;;;;;;;23.20;4.40;;;4.10;96.50;;;;;;4830355;29;20452;-80
2023/01/19 10:30:49;;;;;;;23.30;4.23;;;4.30;96.30;;;;;;4832655;29;20058;-79
2023/01/19 10:33:14;;;;;;;18.15;4.07;;;4.40;96.30;;;;;;4831939;29;20081;-80
2023/01/19 10:35:40;;;;;;;20.27;4.63;;;4.40;96.20;;;;;;4831085;29;20100;-79
2023/01/19 10:38:13;;;;;;;21.13;4.05;;;4.50;95.90;;;;;;4830682;29;20081;-79
2023/01/19 10:40:47;;;;;;;15.70;3.05;;;4.60;95.80;;;;;;4834080;29;20045;-80
2023/01/19 10:43:34;;;;;;;24.45;3.60;;;4.60;95.70;;;;;;4831617;29;20503;-80
2023/01/19 10:46:04;;;;;;;17.15;3.42;;;4.60;95.60;;;;;;4831144;29;20502;-80
2023/01/19 10:48:40;;;;;;;18.05;3.15;;;4.70;95.80;;;;;;4832750;29;20050;-82
2023/01/19 10:51:08;;;;;;;22.88;3.40;;;4.80;95.70;;;;;;4831909;29;20156;-80
2023/01/19 10:53:34;;;;;;;16.02;2.85;;;5.00;95.40;;;;;;4834554;29;20081;-81
2023/01/19 10:56:22;;;;;;;26.48;3.42;;;5.00;95.10;;;;;;4837175;29;20577;-82
2023/01/19 10:58:48;;;;;;;20.48;3.15;;;5.00;94.70;;;;;;4830355;29;20051;-80
2023/01/19 11:01:13;;;;;;;12.48;2.63;;;5.10;94.70;;;;;;4832999;29;20056;-80
2023/01/19 11:03:39;;;;;;;17.08;2.40;;;5.20;94.70;;;;;;4831383;29;20075;-80
2023/01/19 11:06:17;;;;;;;14.35;2.70;;;5.30;94.40;;;;;;4832305;29;20413;-83
2023/01/19 11:08:44;;;;;;;18.17;2.45;;;5.30;94.20;;;;;;4815826;29;20050;-86
2023/01/19 11:11:11;;;;;;;12.00;2.00;;;5.40;93.70;;;;;;4847958;29;20042;-87
2023/01/19 11:13:38;;;;;;;15.60;2.70;;;5.50;93.40;;;;;;4831658;29;20676;-82
2023/01/19 11:16:11;;;;;;;13.10;2.10;;;5.40;93.10;;;;;;4832145;29;20050;-82
2023/01/19 11:18:38;;;;;;;18.35;2.38;;;5.40;92.70;;;;;;4831376;29;20058;-85
2023/01/19 11:21:14;;;;;;;20.08;2.80;;;5.40;92.80;;;;;;4833379;29;20090;-80
2023/01/19 11:23:54;;;;;;;11.25;2.03;;;5.50;92.60;;;;;;4805591;29;20045;-85
2023/01/19 11:26:41;;;;;;;17.50;2.45;;;5.60;92.50;;;;;;4832803;29;20084;-82
2023/01/19 11:29:22;;;;;;;17.23;2.60;;;5.60;92.60;;;;;;4831474;29;20068;-80
2023/01/19 11:31:48;;;;;;;15.98;2.47;;;5.70;92.20;;;;;;4833257;29;20050;-80
2023/01/19 11:34:32;;;;;;;15.88;1.95;;;5.70;92.00;;;;;;4831113;29;20061;-84
2023/01/19 11:37:00;;;;;;;13.73;2.00;;;5.80;92.00;;;;;;4831770;29;20144;-81
2023/01/19 11:39:28;;;;;;;15.27;2.13;;;5.80;91.80;;;;;;4830677;29;20411;-80
2023/01/19 11:42:05;;;;;;;16.35;2.70;;;5.80;91.80;;;;;;4836542;29;20049;-83
2023/01/19 11:44:38;;;;;;;14.85;1.95;;;5.80;91.90;;;;;;4829567;29;20114;-81
2023/01/19 11:47:26;;;;;;;10.38;1.90;;;5.90;91.40;;;;;;4835564;29;20561;-85
2023/01/19 11:50:16;;;;;;;13.98;2.40;;;5.90;90.00;;;;;;4832391;29;20057;-83
2023/01/19 11:52:50;;;;;;;12.63;2.20;;;5.90;90.20;;;;;;4834810;29;20057;-83
2023/01/19 11:55:27;;;;;;;15.75;2.42;;;5.90;90.10;;;;;;4834011;29;20046;-83
2023/01/19 11:57:53;;;;;;;11.30;1.98;;;6.00;89.60;;;;;;4836770;29;20045;-81
2023/01/19 12:00:38;;;;;;;17.55;2.30;;;6.00;90.30;;;;;;4835358;29;20042;-81
2023/01/19 12:03:22;;;;;;;11.75;1.80;;;6.00;90.30;;;;;;4834591;29;20073;-83
2023/01/19 12:05:53;;;;;;;12.13;2.08;;;6.10;88.30;;;;;;4834923;29;20054;-84
2023/01/19 12:08:33;;;;;;;14.68;2.35;;;6.10;88.60;;;;;;4832191;29;20037;-80
2023/01/19 12:11:01;;;;;;;17.90;1.92;;;6.10;88.20;;;;;;4837533;29;20073;-81
2023/01/19 12:13:30;;;;;;;9.75;1.52;;;6.10;87.10;;;;;;4837856;29;20523;-81
2023/01/19 12:16:11;;;;;;;11.55;1.85;;;6.00;85.70;;;;;;4844500;29;20808;-79
2023/01/19 12:19:09;;;;;;;7.05;1.58;;;6.20;85.10;;;;;;4833999;29;20384;-79
2023/01/19 12:21:36;;;;;;;16.70;2.33;;;6.10;85.40;;;;;;4831083;29;20593;-81
2023/01/19 12:24:15;;;;;;;9.20;1.63;;;6.20;87.50;;;;;;4834753;29;20049;-80
2023/01/19 12:26:53;;;;;;;8.43;1.55;;;6.20;85.30;;;;;;4832267;29;20384;-81
2023/01/19 12:29:23;;;;;;;11.63;1.73;;;6.20;85.90;;;;;;4835007;29;20054;-79
2023/01/19 12:32:15;;;;;;;11.55;1.58;;;6.20;84.60;;;;;;4834875;29;20082;-82
2023/01/19 12:34:54;;;;;;;24.80;7.35;;;6.10;81.80;;;;;;4819124;29;20414;-79
2023/01/19 12:37:36;;;;;;;13.23;3.53;;;6.00;83.50;;;;;;4834826;29;20045;-80
2023/01/19 12:40:22;;;;;;;8.20;1.88;;;6.00;84.40;;;;;;4831819;29;20106;-80
2023/01/19 12:43:00;;;;;;;12.50;2.03;;;6.00;83.90;;;;;;4816502;29;20088;-79
2023/01/19 12:45:34;;;;;;;11.32;2.78;;;5.90;83.60;;;;;;4834422;29;20133;-79
2023/01/19 12:48:02;;;;;;;15.63;1.80;;;5.90;83.80;;;;;;4826659;29;20144;-80
2023/01/19 12:50:36;;;;;;;11.75;1.75;;;5.90;83.20;;;;;;4833730;29;20114;-80
2023/01/19 12:53:03;;;;;;;7.20;1.70;;;5.90;83.70;;;;;;4838107;29;20116;-80
2023/01/19 12:55:32;;;;;;;12.95;2.83;;;5.90;83.40;;;;;;4835182;29;20042;-80
2023/01/19 12:58:27;;;;;;;11.95;2.28;;;6.00;84.40;;;;;;4835526;29;20058;-80
2023/01/19 13:01:14;;;;;;;13.68;2.05;;;6.10;83.70;;;;;;4806168;29;20530;-85
2023/01/19 13:03:44;;;;;;;7.22;1.20;;;6.20;81.50;;;;;;4835046;29;20058;-84
2023/01/19 13:06:09;;;;;;;9.85;1.50;;;6.00;81.50;;;;;;4834076;29;20053;-84